Time;durP1;ratioP1;P1;durP2;ratioP2;P2;SDS_P1;SDS_P2;PMS_P1;PMS_P2;Temp;Humidity;BMP_temperature;BMP_pressure;BME280_temperature;BME280_humidity;BME280_pressure;Samples;Min_cycle;Max_cycle;Signal;HPM_P1;HPM_P2
2022/12/26 00:01:26;;;;;;;2.00;1.90;;;17.80;65.00;18.60;100142.00;;;;5010830;28;20206;-48
2022/12/26 00:03:52;;;;;;;2.00;1.90;;;17.80;65.10;18.90;100231.00;;;;5010544;28;20652;-48
2022/12/26 00:06:23;;;;;;;1.90;1.80;;;17.80;65.00;18.80;100212.00;;;;5011035;28;20251;-48
2022/12/26 00:08:49;;;;;;;2.30;2.10;;;17.80;65.10;18.80;100223.00;;;;5010775;28;20179;-48
2022/12/26 00:11:15;;;;;;;2.10;2.00;;;17.80;65.00;18.80;100226.00;;;;4993965;28;20200;-47
2022/12/26 00:13:41;;;;;;;1.90;1.80;;;17.80;65.00;18.80;100226.00;;;;5011618;28;20314;-47
2022/12/26 00:16:08;;;;;;;1.80;1.70;;;17.70;64.90;18.80;100221.00;;;;5010881;28;20168;-49
2022/12/26 00:18:34;;;;;;;2.00;1.90;;;17.70;65.00;18.80;100226.00;;;;5011558;28;20179;-48
2022/12/26 00:20:59;;;;;;;2.00;1.90;;;17.70;64.90;18.80;100218.00;;;;5010461;28;20183;-46
2022/12/26 00:23:26;;;;;;;2.03;1.87;;;17.70;64.90;18.80;100212.00;;;;5010262;28;20677;-47
2022/12/26 00:25:52;;;;;;;2.03;1.93;;;17.70;64.90;18.80;100213.00;;;;5010607;28;20215;-50
2022/12/26 00:28:18;;;;;;;2.00;1.90;;;17.80;65.00;18.80;100226.00;;;;5010049;28;20202;-46
2022/12/26 00:30:43;;;;;;;2.20;2.00;;;17.70;64.90;18.80;100216.00;;;;5010570;28;20203;-48
2022/12/26 00:33:09;;;;;;;2.20;2.10;;;17.70;64.90;18.80;100219.00;;;;4993213;28;20195;-49
2022/12/26 00:35:35;;;;;;;2.30;2.10;;;17.70;64.90;18.80;100141.00;;;;5010930;28;20546;-48
2022/12/26 00:38:00;;;;;;;1.80;1.70;;;17.70;64.90;18.70;100223.00;;;;5010587;28;20628;-48
2022/12/26 00:40:26;;;;;;;1.93;1.83;;;17.70;64.90;18.70;100219.00;;;;4994071;28;20202;-48
2022/12/26 00:42:52;;;;;;;1.83;1.73;;;17.70;64.90;18.70;100149.00;;;;5010092;28;20196;-48
2022/12/26 00:45:18;;;;;;;2.03;1.87;;;17.60;64.80;18.70;100224.00;;;;5010574;28;20237;-48
2022/12/26 00:47:43;;;;;;;1.93;1.83;;;17.60;64.80;18.70;100220.00;;;;4994054;28;20183;-47
2022/12/26 00:50:09;;;;;;;1.93;1.70;;;17.60;64.80;18.70;100223.00;;;;4993356;28;20175;-47
2022/12/26 00:52:35;;;;;;;1.90;1.80;;;17.60;64.80;18.70;100225.00;;;;4993724;28;20237;-49
2022/12/26 00:55:01;;;;;;;1.90;1.80;;;17.60;64.80;18.70;100238.00;;;;5010107;28;20183;-49
2022/12/26 00:57:26;;;;;;;1.93;1.83;;;17.60;64.80;18.70;100223.00;;;;5011226;28;20268;-48
2022/12/26 00:59:52;;;;;;;2.03;1.93;;;17.60;64.80;18.70;100237.00;;;;4993720;28;20175;-47
2022/12/26 01:05:02;;;;;;;2.00;1.90;;;17.60;64.80;18.60;100173.00;;;;5010744;28;20266;-49
2022/12/26 01:07:28;;;;;;;1.97;1.87;;;17.60;64.90;18.60;100165.00;;;;4977347;28;20555;-48
2022/12/26 01:09:53;;;;;;;2.17;2.00;;;17.60;64.80;18.60;100252.00;;;;4993548;28;20179;-49
2022/12/26 01:12:19;;;;;;;1.83;1.73;;;17.50;64.70;18.60;100253.00;;;;4993085;28;20223;-49
2022/12/26 01:14:45;;;;;;;1.80;1.70;;;17.60;64.90;18.60;100228.00;;;;5010661;28;20187;-47
2022/12/26 01:17:11;;;;;;;2.20;2.00;;;17.60;64.80;18.60;100167.00;;;;5009806;28;20263;-47
2022/12/26 01:19:36;;;;;;;1.80;1.70;;;17.50;65.40;18.60;100250.00;;;;5013699;28;20187;-48
2022/12/26 01:22:02;;;;;;;1.90;1.80;;;17.50;64.70;18.60;100265.00;;;;5002287;28;20371;-48
2022/12/26 01:24:28;;;;;;;2.00;1.90;;;17.50;64.80;18.60;100279.00;;;;5018749;28;20237;-47
2022/12/26 01:26:53;;;;;;;1.90;1.80;;;17.50;64.70;18.60;100242.00;;;;5011540;28;20179;-48
2022/12/26 01:29:19;;;;;;;2.07;1.93;;;17.50;64.80;18.60;100278.00;;;;5010385;28;20187;-49
2022/12/26 01:31:45;;;;;;;1.73;1.63;;;17.50;64.70;18.50;100250.00;;;;5009421;28;20266;-47
2022/12/26 01:34:11;;;;;;;1.90;1.80;;;17.50;64.80;18.50;100200.00;;;;5009474;28;20676;-48
2022/12/26 01:36:36;;;;;;;1.80;1.70;;;17.50;64.80;18.50;100246.00;;;;4992958;28;20193;-48
2022/12/26 01:39:02;;;;;;;1.90;1.80;;;17.50;64.80;18.50;100277.00;;;;4992476;28;20289;-49
2022/12/26 01:41:29;;;;;;;1.80;1.70;;;17.40;64.80;18.50;100286.00;;;;4992405;28;20195;-49
2022/12/26 01:44:02;;;;;;;1.90;1.80;;;17.50;64.80;18.50;100277.00;;;;5008336;28;20175;-49
2022/12/26 01:46:39;;;;;;;1.90;1.80;;;17.40;64.80;18.50;100279.00;;;;4992606;28;20233;-48
2022/12/26 01:49:30;;;;;;;1.80;1.70;;;17.40;64.80;18.50;100289.00;;;;5009206;28;20179;-48
2022/12/26 01:52:05;;;;;;;1.80;1.70;;;17.40;64.80;18.40;100280.00;;;;5008628;28;20225;-47
2022/12/26 01:54:34;;;;;;;1.90;1.80;;;17.40;64.80;18.40;100260.00;;;;5008690;28;20230;-47
2022/12/26 01:57:01;;;;;;;1.77;1.67;;;17.40;64.80;18.40;100276.00;;;;4992071;28;20180;-48
2022/12/26 01:59:28;;;;;;;1.90;1.80;;;17.40;64.90;18.40;100274.00;;;;5008836;28;20249;-47
2022/12/26 02:01:54;;;;;;;1.73;1.63;;;17.40;64.90;18.40;100263.00;;;;5008211;28;20704;-47
2022/12/26 02:07:09;;;;;;;1.93;1.83;;;17.40;64.90;18.10;100252.00;;;;5008992;28;20235;-48
2022/12/26 02:09:35;;;;;;;1.80;1.70;;;17.40;64.90;18.40;100255.00;;;;5008693;28;20250;-47
2022/12/26 02:12:12;;;;;;;1.90;1.80;;;17.40;64.90;18.40;100287.00;;;;5008052;28;20206;-48
2022/12/26 02:14:38;;;;;;;1.90;1.80;;;17.40;65.00;18.40;100275.00;;;;4992356;28;20160;-47
2022/12/26 02:17:04;;;;;;;2.00;1.90;;;17.30;64.90;18.30;100274.00;;;;4992354;28;20175;-47
2022/12/26 02:20:12;;;;;;;1.90;1.80;;;17.30;64.80;18.30;100304.00;;;;5009005;28;20190;-48
2022/12/26 02:23:18;;;;;;;2.00;1.90;;;17.30;64.90;18.30;100293.00;;;;4992224;28;20580;-48
2022/12/26 02:26:40;;;;;;;1.80;1.70;;;17.30;64.90;18.30;100217.00;;;;5008250;28;20175;-48
2022/12/26 02:29:30;;;;;;;2.00;1.80;;;17.30;65.00;18.20;100286.00;;;;4992270;28;20199;-48
2022/12/26 02:32:35;;;;;;;1.80;1.70;;;17.30;64.90;18.20;100295.00;;;;5008024;28;20657;-47
2022/12/26 02:35:18;;;;;;;2.10;1.93;;;17.30;65.00;18.20;100286.00;;;;4991540;28;20681;-48
2022/12/26 02:38:33;;;;;;;2.00;1.90;;;17.30;65.00;18.20;100288.00;;;;5008192;28;20162;-47
2022/12/26 02:41:23;;;;;;;1.70;1.60;;;17.30;65.00;18.20;100276.00;;;;4996635;28;20259;-48
2022/12/26 02:47:14;;;;;;;1.80;1.70;;;17.20;64.80;18.10;100299.00;;;;5008269;28;20182;-48
2022/12/26 03:13:23;;;;;;;1.90;1.80;;;17.20;64.90;18.10;100321.00;;;;5011900;28;20576;-49
2022/12/26 03:19:08;;;;;;;1.80;1.70;;;17.20;64.90;18.00;100306.00;;;;5011557;28;20198;-50
2022/12/26 03:21:40;;;;;;;1.97;1.87;;;17.20;64.90;18.00;100311.00;;;;5011730;28;20309;-48
2022/12/26 03:24:09;;;;;;;1.70;1.60;;;17.10;64.90;18.10;100302.00;;;;4995768;28;20161;-48
2022/12/26 03:26:41;;;;;;;4.57;1.93;;;17.10;65.00;18.10;100302.00;;;;5011694;28;20187;-49
2022/12/26 03:32:07;;;;;;;2.67;1.90;;;17.20;64.90;18.10;100222.00;;;;5011285;28;20248;-47
2022/12/26 03:34:35;;;;;;;1.80;1.70;;;17.10;65.00;18.10;100319.00;;;;5011957;28;20162;-48
2022/12/26 03:37:40;;;;;;;2.40;1.80;;;17.20;65.10;18.10;100323.00;;;;5011264;28;20189;-47
2022/12/26 04:20:59;;;;;;;2.00;1.80;;;17.00;65.00;18.00;100353.00;;;;4970793;28;20190;-48
2022/12/26 04:46:33;;;;;;;4.53;2.27;;;17.00;66.20;18.00;100362.00;;;;5010171;28;20178;-48
2022/12/26 04:51:43;;;;;;;3.83;2.20;;;17.00;65.40;18.00;100356.00;;;;5010356;28;20221;-48
2022/12/26 04:54:08;;;;;;;4.77;2.20;;;17.00;65.40;18.00;100350.00;;;;5010812;28;20175;-48
2022/12/26 04:56:34;;;;;;;3.03;2.00;;;17.00;66.40;18.00;100356.00;;;;5009798;28;20647;-48
2022/12/26 04:59:00;;;;;;;6.63;2.40;;;17.00;65.60;18.00;100365.00;;;;5010145;28;20181;-48
2022/12/26 05:09:44;;;;;;;10.50;2.50;;;17.00;66.00;18.00;100256.00;;;;5010556;28;20225;-47
2022/12/26 05:12:10;;;;;;;4.80;2.07;;;17.00;66.10;18.00;100345.00;;;;5010070;28;20313;-47
2022/12/26 05:14:36;;;;;;;5.60;2.30;;;17.00;66.00;18.00;100353.00;;;;5010104;28;20250;-49
2022/12/26 05:30:48;;;;;;;2.30;1.90;;;16.90;66.00;17.90;100363.00;;;;5009806;28;20227;-46
2022/12/26 05:35:58;;;;;;;5.47;1.90;;;16.90;66.00;17.90;100286.00;;;;5009757;28;20194;-48
2022/12/26 05:38:24;;;;;;;3.27;2.07;;;16.90;66.00;17.90;100364.00;;;;5008259;28;20167;-48
2022/12/26 05:40:50;;;;;;;2.63;2.00;;;16.90;66.00;17.90;100275.00;;;;5009577;28;20385;-47
2022/12/26 05:43:17;;;;;;;3.83;2.00;;;16.90;66.00;17.90;100285.00;;;;5008453;28;20628;-48
2022/12/26 05:45:43;;;;;;;3.67;2.00;;;16.90;66.10;17.90;100283.00;;;;4993125;28;20533;-48
2022/12/26 05:48:08;;;;;;;3.07;2.00;;;16.90;66.10;17.90;100317.00;;;;5009687;28;20181;-47
2022/12/26 05:50:34;;;;;;;4.20;1.90;;;16.90;66.10;17.90;100360.00;;;;4992318;28;20175;-51
2022/12/26 05:53:00;;;;;;;3.23;2.13;;;16.90;66.20;17.90;100379.00;;;;4992639;28;20199;-47
2022/12/26 05:55:27;;;;;;;6.17;1.97;;;16.80;66.20;17.60;100364.00;;;;4990175;28;20179;-48
2022/12/26 05:57:58;;;;;;;3.40;2.17;;;16.90;66.50;17.90;100360.00;;;;4990147;28;20277;-47
2022/12/26 06:00:23;;;;;;;2.87;2.20;;;16.90;66.60;17.90;100369.00;;;;4986168;28;20186;-49
2022/12/26 06:02:49;;;;;;;3.30;2.20;;;16.90;66.50;17.90;100345.00;;;;4958129;28;20649;-48
2022/12/26 06:05:15;;;;;;;3.87;2.23;;;16.80;66.50;17.70;100271.00;;;;4958715;28;20193;-49
2022/12/26 06:07:41;;;;;;;3.10;2.00;;;16.80;66.60;17.80;100346.00;;;;4986292;28;20537;-49
2022/12/26 06:10:07;;;;;;;14.60;2.43;;;16.80;66.70;17.80;100342.00;;;;4992735;28;20178;-50
2022/12/26 06:12:33;;;;;;;4.37;2.10;;;16.80;66.80;17.80;100276.00;;;;4991835;28;20207;-49
2022/12/26 06:14:59;;;;;;;2.83;2.17;;;16.70;66.60;17.70;100292.00;;;;4992216;28;20528;-48
2022/12/26 06:17:25;;;;;;;2.70;2.20;;;16.70;66.90;17.70;100370.00;;;;4992815;28;20261;-49
2022/12/26 06:19:50;;;;;;;6.10;2.20;;;16.70;66.80;17.70;100376.00;;;;5008989;28;20210;-49
2022/12/26 06:22:16;;;;;;;2.97;2.03;;;16.70;66.80;17.70;100376.00;;;;5008586;28;20197;-48
2022/12/26 06:24:42;;;;;;;4.33;2.10;;;16.70;66.80;17.70;100388.00;;;;5008657;28;20180;-47
2022/12/26 06:27:08;;;;;;;4.03;1.80;;;16.70;66.80;17.70;100385.00;;;;5009054;28;20195;-48
2022/12/26 06:29:33;;;;;;;7.07;2.10;;;16.70;66.60;17.70;100378.00;;;;4992642;28;20541;-49
2022/12/26 06:31:59;;;;;;;5.07;2.00;;;16.70;66.60;17.70;100387.00;;;;5008631;28;20289;-48
2022/12/26 06:34:26;;;;;;;3.50;2.00;;;16.70;66.70;17.70;100385.00;;;;4976823;28;20667;-48
2022/12/26 06:36:52;;;;;;;3.80;1.90;;;16.70;66.70;17.70;100335.00;;;;4992877;28;20237;-48
2022/12/26 06:39:18;;;;;;;4.87;1.97;;;16.70;66.60;17.70;100338.00;;;;4993237;28;20580;-48
2022/12/26 06:41:44;;;;;;;4.47;1.90;;;16.60;66.60;17.70;100335.00;;;;4992316;28;20231;-48
2022/12/26 06:44:10;;;;;;;3.43;2.13;;;16.60;66.60;17.70;100395.00;;;;4960228;28;20175;-49
2022/12/26 06:46:35;;;;;;;3.57;2.00;;;16.70;67.40;17.40;100392.00;;;;5009094;28;20180;-48
2022/12/26 06:49:01;;;;;;;2.63;2.10;;;16.60;66.60;17.60;100403.00;;;;4976233;28;20177;-49
2022/12/26 06:51:27;;;;;;;4.17;2.10;;;16.60;66.60;17.60;100402.00;;;;4991669;28;20201;-48
2022/12/26 06:53:53;;;;;;;2.60;1.90;;;16.60;66.60;17.60;100303.00;;;;4993147;28;20700;-48
2022/12/26 06:56:21;;;;;;;1.93;1.73;;;16.60;66.60;17.70;100402.00;;;;5008247;28;20247;-47
2022/12/26 06:58:51;;;;;;;2.00;1.80;;;16.60;66.60;17.70;100393.00;;;;4976724;28;20229;-48
2022/12/26 07:01:18;;;;;;;3.13;1.90;;;16.60;66.60;17.70;100392.00;;;;4992280;28;20177;-47
2022/12/26 07:03:44;;;;;;;2.40;1.70;;;16.60;66.60;17.70;100313.00;;;;4976299;28;20174;-47
2022/12/26 07:06:20;;;;;;;2.93;1.80;;;16.60;66.60;17.70;100399.00;;;;4979771;28;20176;-46
2022/12/26 07:08:46;;;;;;;2.07;1.80;;;16.60;66.60;17.70;100404.00;;;;4988021;28;20187;-47
2022/12/26 07:11:21;;;;;;;3.00;1.73;;;16.60;66.50;17.70;100418.00;;;;4977372;28;20202;-51
2022/12/26 07:13:47;;;;;;;2.63;1.80;;;16.60;66.60;17.70;100423.00;;;;4992527;28;20165;-47
2022/12/26 07:16:13;;;;;;;4.13;1.90;;;16.70;66.50;17.70;100431.00;;;;5008697;28;20544;-46
2022/12/26 07:18:39;;;;;;;2.33;1.70;;;16.60;67.30;17.70;100438.00;;;;5008827;28;20180;-49
2022/12/26 07:21:10;;;;;;;2.10;1.70;;;16.60;66.50;17.70;100374.00;;;;4976829;28;20257;-47
2022/12/26 07:23:36;;;;;;;2.00;1.80;;;16.60;66.60;17.70;100341.00;;;;4976237;28;20189;-48
2022/12/26 07:26:01;;;;;;;1.90;1.80;;;16.60;66.40;17.60;100439.00;;;;4975219;28;20526;-48
2022/12/26 07:28:27;;;;;;;2.00;1.63;;;16.60;66.40;17.70;100345.00;;;;4975613;28;20176;-48
2022/12/26 07:30:53;;;;;;;2.47;1.80;;;16.60;66.40;17.60;100438.00;;;;4991919;28;20179;-49
2022/12/26 07:33:19;;;;;;;1.90;1.50;;;16.60;66.50;17.60;100441.00;;;;4991628;28;20230;-48
2022/12/26 07:35:45;;;;;;;1.70;1.60;;;16.60;66.60;17.60;100351.00;;;;5007043;28;20173;-47
2022/12/26 07:38:11;;;;;;;2.00;1.80;;;16.60;66.70;17.60;100461.00;;;;4959552;28;20174;-48
2022/12/26 07:40:36;;;;;;;1.70;1.60;;;16.50;66.70;17.60;100380.00;;;;4976201;28;20537;-48
2022/12/26 07:43:02;;;;;;;1.93;1.73;;;16.50;66.70;17.50;100483.00;;;;4976656;28;20195;-47
2022/12/26 07:45:28;;;;;;;1.60;1.50;;;16.50;66.80;17.50;100406.00;;;;5011421;28;20275;-48
2022/12/26 07:47:57;;;;;;;1.60;1.50;;;16.50;66.80;17.50;100460.00;;;;4979423;28;20646;-47
2022/12/26 07:50:24;;;;;;;2.80;1.60;;;16.40;66.80;17.50;100471.00;;;;4978982;28;20181;-47
2022/12/26 07:52:50;;;;;;;1.70;1.60;;;16.50;67.00;17.50;100374.00;;;;5011932;28;20211;-48
2022/12/26 07:55:16;;;;;;;1.90;1.70;;;16.50;66.80;17.50;100368.00;;;;4995089;28;20177;-47
2022/12/26 07:57:41;;;;;;;1.70;1.60;;;16.40;66.70;17.50;100484.00;;;;4995265;28;20577;-47
2022/12/26 08:00:08;;;;;;;1.70;1.60;;;16.50;66.80;17.40;100402.00;;;;4995339;28;20213;-48
2022/12/26 08:02:33;;;;;;;2.00;1.73;;;16.50;66.80;17.40;100483.00;;;;5011356;28;20549;-48
2022/12/26 08:04:59;;;;;;;1.60;1.50;;;16.40;66.60;17.10;100469.00;;;;5011557;28;20178;-48
2022/12/26 08:07:25;;;;;;;1.50;1.40;;;16.50;66.70;17.10;100403.00;;;;4996028;28;20262;-48
2022/12/26 08:09:50;;;;;;;1.63;1.53;;;16.50;66.70;17.40;100487.00;;;;4978977;28;20284;-48
2022/12/26 08:12:20;;;;;;;1.57;1.47;;;16.40;66.60;17.40;100409.00;;;;5010978;28;20219;-47
2022/12/26 08:14:46;;;;;;;1.60;1.50;;;16.40;66.50;17.40;100491.00;;;;5012118;28;20223;-47
2022/12/26 08:17:12;;;;;;;1.50;1.40;;;16.40;66.60;17.40;100504.00;;;;5011829;28;20634;-47
2022/12/26 08:19:37;;;;;;;1.30;1.20;;;16.40;67.30;17.40;100415.00;;;;4979825;28;20180;-47
2022/12/26 08:22:03;;;;;;;1.70;1.60;;;16.40;66.50;17.40;100491.00;;;;4995810;28;20199;-47
2022/12/26 08:24:29;;;;;;;1.40;1.30;;;16.40;66.60;17.40;100496.00;;;;4978695;28;20202;-47
2022/12/26 08:26:54;;;;;;;1.90;1.70;;;16.40;66.50;17.40;100491.00;;;;4978254;28;20172;-46
2022/12/26 08:29:20;;;;;;;1.90;1.70;;;16.40;66.50;17.30;100474.00;;;;5012615;28;20175;-47
2022/12/26 08:31:46;;;;;;;1.40;1.30;;;16.40;66.50;17.40;100403.00;;;;5011736;28;20865;-47
2022/12/26 08:34:12;;;;;;;1.43;1.33;;;16.30;66.30;17.30;100492.00;;;;4995241;28;20173;-49
2022/12/26 08:36:38;;;;;;;1.97;1.40;;;16.40;66.40;17.30;100421.00;;;;4978300;28;20232;-47
2022/12/26 08:39:04;;;;;;;1.20;1.20;;;16.30;66.30;17.40;100493.00;;;;5011727;28;20175;-46
2022/12/26 08:41:29;;;;;;;1.30;1.20;;;16.40;66.40;17.40;100499.00;;;;4994394;28;20212;-48
2022/12/26 08:43:55;;;;;;;1.50;1.40;;;16.30;66.30;17.40;100418.00;;;;5011863;28;20585;-47
2022/12/26 08:46:21;;;;;;;1.40;1.30;;;16.40;66.40;17.40;100499.00;;;;4978366;28;20198;-47
2022/12/26 08:48:47;;;;;;;1.60;1.50;;;16.40;66.40;17.40;100436.00;;;;4962492;28;20176;-49
2022/12/26 08:51:18;;;;;;;1.47;1.37;;;16.40;66.30;17.40;100421.00;;;;4963597;28;20203;-46
2022/12/26 08:53:48;;;;;;;1.50;1.40;;;16.40;66.30;17.40;100425.00;;;;4982723;28;20170;-47
2022/12/26 08:56:17;;;;;;;1.47;1.37;;;16.40;66.30;17.40;100506.00;;;;4966524;28;20197;-48
2022/12/26 08:58:43;;;;;;;2.40;1.40;;;16.40;66.30;17.40;100514.00;;;;4999175;28;20178;-48
2022/12/26 09:01:13;;;;;;;1.50;1.40;;;16.40;66.40;17.40;100520.00;;;;4971046;28;20235;-47
2022/12/26 09:03:39;;;;;;;1.60;1.50;;;16.40;66.30;17.50;100512.00;;;;4976281;28;20176;-47
2022/12/26 09:06:05;;;;;;;3.50;1.43;;;16.40;66.30;17.50;100520.00;;;;5007354;28;20171;-48
2022/12/26 09:08:33;;;;;;;3.90;1.67;;;16.40;66.50;17.50;100531.00;;;;5009073;28;20216;-48
2022/12/26 09:11:12;;;;;;;3.33;1.50;;;16.40;66.60;17.50;100532.00;;;;5009448;28;20183;-47
2022/12/26 09:13:38;;;;;;;3.40;1.50;;;16.40;66.60;17.50;100476.00;;;;5009347;28;20665;-48
2022/12/26 09:16:11;;;;;;;2.27;1.30;;;16.40;66.60;17.50;100506.00;;;;4992655;28;20172;-48
2022/12/26 09:18:37;;;;;;;1.63;1.53;;;16.40;66.60;17.50;100546.00;;;;5009567;28;20177;-47
2022/12/26 09:21:04;;;;;;;1.93;1.60;;;16.50;66.70;17.50;100549.00;;;;4992662;28;20708;-48
2022/12/26 09:23:30;;;;;;;2.30;1.53;;;16.40;66.60;17.50;100545.00;;;;4992383;28;20207;-48
2022/12/26 09:26:02;;;;;;;1.50;1.40;;;16.40;66.40;17.50;100547.00;;;;5008937;28;20166;-47
2022/12/26 09:28:28;;;;;;;1.73;1.43;;;16.40;66.50;17.50;100544.00;;;;5009477;28;20187;-48
2022/12/26 09:30:53;;;;;;;1.40;1.30;;;16.50;66.60;17.50;100555.00;;;;5007805;28;20172;-47
2022/12/26 09:33:19;;;;;;;2.33;1.60;;;16.40;66.40;17.50;100548.00;;;;4992422;28;20199;-49
2022/12/26 09:35:45;;;;;;;2.30;1.33;;;16.50;66.50;17.50;100549.00;;;;5009759;28;20545;-49
2022/12/26 09:38:11;;;;;;;2.33;1.50;;;16.40;66.60;17.50;100552.00;;;;5008789;28;20637;-49
2022/12/26 09:40:57;;;;;;;2.03;1.23;;;16.40;66.60;17.50;100559.00;;;;5009870;28;20690;-49
2022/12/26 09:44:03;;;;;;;3.90;1.60;;;16.50;66.80;17.50;100465.00;;;;4991620;28;20288;-48
2022/12/26 09:47:03;;;;;;;2.07;1.50;;;16.50;67.00;17.50;100583.00;;;;5006921;28;20161;-47
2022/12/26 09:49:51;;;;;;;3.50;1.50;;;16.50;67.00;17.40;100573.00;;;;5007897;28;20230;-48
2022/12/26 09:52:21;;;;;;;2.90;1.77;;;16.50;67.10;17.40;100577.00;;;;5017419;28;20231;-48
2022/12/26 09:54:53;;;;;;;2.40;1.30;;;16.50;67.00;17.40;100502.00;;;;4991872;28;20189;-48
2022/12/26 09:57:25;;;;;;;3.40;1.40;;;16.50;67.10;17.40;100595.00;;;;5009183;28;20177;-48
2022/12/26 09:59:56;;;;;;;5.23;1.30;;;16.50;67.10;17.30;100580.00;;;;5005786;28;20335;-48
2022/12/26 10:02:24;;;;;;;3.07;1.40;;;16.50;67.70;17.30;100591.00;;;;5021101;28;20192;-49
2022/12/26 10:04:50;;;;;;;2.50;1.33;;;16.50;67.20;17.40;100596.00;;;;5010009;28;20566;-48
2022/12/26 10:08:04;;;;;;;3.27;1.63;;;16.50;67.80;17.40;100586.00;;;;5008939;28;20210;-48
2022/12/26 10:10:44;;;;;;;4.43;1.50;;;16.50;67.00;17.40;100595.00;;;;4975069;28;20186;-48
2022/12/26 10:13:14;;;;;;;3.10;1.27;;;16.50;67.00;17.40;100503.00;;;;5008960;28;20208;-48
2022/12/26 10:16:01;;;;;;;2.23;1.30;;;16.50;67.00;17.40;100583.00;;;;5009837;28;20183;-48
2022/12/26 10:18:49;;;;;;;2.53;1.30;;;16.50;66.90;17.40;100526.00;;;;5009020;28;20194;-47
2022/12/26 10:21:46;;;;;;;2.60;1.30;;;16.50;66.80;17.40;100586.00;;;;4991578;28;20210;-47
2022/12/26 10:24:15;;;;;;;2.17;1.47;;;16.40;66.60;17.40;100583.00;;;;4994371;28;20602;-48
2022/12/26 10:26:53;;;;;;;4.43;1.63;;;16.40;66.60;17.30;100505.00;;;;5008446;28;20171;-47
2022/12/26 10:29:38;;;;;;;4.93;1.47;;;16.40;66.60;17.10;100506.00;;;;5008583;28;20180;-46
2022/12/26 10:32:11;;;;;;;3.93;1.50;;;16.50;66.80;17.30;100527.00;;;;4991383;28;20207;-48
2022/12/26 10:34:45;;;;;;;3.20;1.50;;;16.50;66.80;17.30;100581.00;;;;5008654;28;20165;-47
2022/12/26 10:37:10;;;;;;;6.40;1.80;;;16.50;66.70;17.30;100494.00;;;;5008141;28;20172;-48
2022/12/26 10:39:46;;;;;;;6.23;2.70;;;16.40;66.90;17.30;100570.00;;;;5008162;28;20175;-48
2022/12/26 10:42:38;;;;;;;7.43;2.00;;;16.40;67.00;17.40;100541.00;;;;5007584;28;20219;-48
2022/12/26 10:45:17;;;;;;;8.30;2.37;;;16.50;67.10;17.00;100557.00;;;;4991873;28;20763;-48
2022/12/26 10:47:47;;;;;;;10.30;2.53;;;16.50;67.50;17.30;100552.00;;;;5008701;28;20176;-48
2022/12/26 10:50:23;;;;;;;7.73;2.60;;;16.50;67.90;17.30;100482.00;;;;5007833;28;20659;-48
2022/12/26 10:52:49;;;;;;;8.23;3.10;;;16.50;67.80;17.30;100484.00;;;;5007625;28;20207;-47
2022/12/26 10:55:19;;;;;;;8.00;3.67;;;16.50;67.50;17.30;100563.00;;;;5008385;28;20250;-47
2022/12/26 10:57:49;;;;;;;9.63;3.53;;;16.60;68.40;17.30;100574.00;;;;4991480;28;20181;-48
2022/12/26 11:00:23;;;;;;;6.33;3.83;;;16.50;68.10;17.30;100572.00;;;;4991408;28;20172;-47
2022/12/26 11:03:16;;;;;;;5.30;3.40;;;16.50;68.30;17.40;100564.00;;;;4990817;28;20232;-48
2022/12/26 11:06:03;;;;;;;6.60;3.23;;;16.50;68.40;17.30;100498.00;;;;5007190;28;20202;-47
2022/12/26 11:08:45;;;;;;;8.23;3.93;;;16.50;68.80;17.30;100491.00;;;;5024347;28;20177;-47
2022/12/26 11:11:24;;;;;;;9.13;3.40;;;16.60;68.80;17.30;100563.00;;;;5007646;28;20195;-48
2022/12/26 11:13:54;;;;;;;6.23;3.30;;;16.50;68.70;17.30;100583.00;;;;5008802;28;20156;-47
2022/12/26 11:16:37;;;;;;;5.20;2.90;;;16.50;68.30;17.30;100502.00;;;;5010386;28;20172;-47
2022/12/26 11:19:03;;;;;;;6.67;3.30;;;16.50;68.30;17.30;100583.00;;;;5012077;28;20183;-48
2022/12/26 11:21:30;;;;;;;7.23;2.93;;;16.50;68.30;17.30;100524.00;;;;5010450;28;20196;-47
2022/12/26 11:24:08;;;;;;;6.73;2.90;;;16.50;68.30;17.30;100574.00;;;;4995551;28;20184;-47
2022/12/26 11:26:34;;;;;;;5.73;2.80;;;16.60;68.30;17.30;100502.00;;;;5012356;28;20186;-48
2022/12/26 11:29:09;;;;;;;4.80;2.80;;;16.60;68.20;17.30;100571.00;;;;4995222;28;20183;-47
2022/12/26 11:31:34;;;;;;;4.10;2.70;;;16.50;68.00;17.30;100517.00;;;;5010414;28;20208;-46
2022/12/26 11:34:00;;;;;;;3.97;2.37;;;16.60;67.90;17.30;100565.00;;;;4995009;28;20829;-47
2022/12/26 11:36:27;;;;;;;5.33;2.53;;;16.70;68.00;17.40;100572.00;;;;5011631;28;20203;-47
2022/12/26 11:39:05;;;;;;;3.53;2.43;;;16.70;68.60;17.40;100489.00;;;;5010242;28;20183;-48
2022/12/26 11:41:42;;;;;;;2.50;2.30;;;16.80;67.80;17.40;100563.00;;;;4978988;28;20199;-47
2022/12/26 11:44:08;;;;;;;3.43;2.50;;;16.90;67.60;17.60;100574.00;;;;4995721;28;20164;-47
2022/12/26 11:46:53;;;;;;;3.87;2.43;;;17.00;67.80;17.70;100573.00;;;;5012664;28;20182;-48
2022/12/26 11:49:25;;;;;;;2.87;2.30;;;17.20;67.60;17.80;100567.00;;;;5012592;28;20173;-48
2022/12/26 11:51:51;;;;;;;3.83;2.10;;;17.30;67.40;17.90;100562.00;;;;4994678;28;20248;-48
2022/12/26 11:54:30;;;;;;;4.10;2.30;;;17.40;67.00;18.00;100566.00;;;;4995511;28;20201;-47
2022/12/26 11:57:19;;;;;;;4.40;2.10;;;17.60;66.90;18.10;100553.00;;;;4996570;28;20225;-46
2022/12/26 11:59:45;;;;;;;2.27;1.80;;;17.80;67.00;18.20;100562.00;;;;4995100;28;20185;-48
2022/12/26 12:02:29;;;;;;;3.13;2.07;;;17.90;66.60;18.30;100551.00;;;;4993975;28;20200;-49
2022/12/26 12:05:01;;;;;;;4.30;2.30;;;18.00;66.50;18.40;100548.00;;;;4980162;28;20172;-48
2022/12/26 12:08:13;;;;;;;2.23;1.97;;;18.00;66.50;18.50;100560.00;;;;5011056;28;20634;-47
2022/12/26 12:11:00;;;;;;;2.40;1.70;;;18.10;66.50;18.50;100568.00;;;;5011775;28;20187;-49
2022/12/26 12:13:50;;;;;;;2.53;1.93;;;18.20;66.50;18.60;100559.00;;;;5001475;28;20210;-48
2022/12/26 12:16:46;;;;;;;6.00;2.00;;;18.20;66.70;18.70;100558.00;;;;4991230;28;20178;-47
2022/12/26 12:19:37;;;;;;;2.77;1.80;;;18.30;66.70;18.70;100561.00;;;;4991411;28;20269;-48
2022/12/26 12:23:00;;;;;;;1.70;1.50;;;18.30;66.90;18.80;100567.00;;;;4990102;28;20653;-47
2022/12/26 12:25:51;;;;;;;1.63;1.50;;;18.30;66.80;18.80;100560.00;;;;4974380;28;20203;-48
2022/12/26 12:28:52;;;;;;;1.93;1.50;;;18.30;66.80;18.90;100556.00;;;;4990081;28;20361;-47
2022/12/26 12:31:36;;;;;;;2.40;1.70;;;18.40;66.90;18.90;100553.00;;;;4990422;28;20195;-46
2022/12/26 12:34:36;;;;;;;1.70;1.60;;;18.40;66.60;18.90;100478.00;;;;4990929;28;20833;-47
2022/12/26 12:37:35;;;;;;;2.10;1.73;;;18.40;66.80;19.00;100489.00;;;;4990853;28;20287;-48
2022/12/26 12:40:40;;;;;;;1.60;1.50;;;18.40;67.60;19.00;100554.00;;;;4989951;28;20168;-48
2022/12/26 12:43:34;;;;;;;1.70;1.60;;;18.50;66.70;19.00;100565.00;;;;4978092;28;20184;-49
2022/12/26 12:46:06;;;;;;;1.70;1.60;;;18.50;66.60;19.10;100563.00;;;;4988916;28;20651;-50
2022/12/26 12:49:30;;;;;;;1.27;1.17;;;18.50;66.50;19.10;100560.00;;;;5018136;28;20661;-47
2022/12/26 12:52:33;;;;;;;2.17;1.60;;;18.50;66.60;19.10;100554.00;;;;4971222;28;20580;-48
2022/12/26 12:55:27;;;;;;;3.80;1.30;;;18.40;66.90;19.10;100555.00;;;;5024140;28;20179;-48
2022/12/26 12:58:08;;;;;;;2.17;1.60;;;18.50;66.90;19.10;100557.00;;;;5008874;28;20187;-47
2022/12/26 13:00:47;;;;;;;2.97;1.80;;;18.60;67.00;19.20;100553.00;;;;5009745;28;20194;-47
2022/12/26 13:03:47;;;;;;;1.50;1.10;;;18.60;66.80;19.20;100552.00;;;;4993807;28;20191;-48
2022/12/26 13:06:22;;;;;;;2.87;1.50;;;18.60;66.70;19.20;100567.00;;;;4992919;28;20199;-49
2022/12/26 13:08:59;;;;;;;1.70;1.40;;;18.60;66.40;19.00;100576.00;;;;5004143;28;20217;-48
2022/12/26 13:11:32;;;;;;;1.43;1.20;;;18.60;66.50;19.20;100579.00;;;;5002795;28;20668;-48
2022/12/26 13:14:22;;;;;;;2.40;1.20;;;18.60;66.60;19.30;100500.00;;;;4981456;28;20179;-48
2022/12/26 13:17:05;;;;;;;1.70;1.23;;;18.70;66.40;19.30;100499.00;;;;5000684;28;20160;-48
2022/12/26 13:19:34;;;;;;;2.37;1.40;;;18.60;66.20;19.30;100575.00;;;;4995230;28;20719;-48
2022/12/26 13:22:05;;;;;;;1.40;1.30;;;18.70;66.40;19.30;100589.00;;;;4993276;28;20196;-47